Jaipur, India

6:22 PM IST on April 27, 2015 (GMT +0530)
Jaipur | | Change Station
CLOSE
Current Station
Airport
Location: Jaipur,
Elevation: 1280 ft
Nearby Weather Stations

Elev 1280 ft 26.82 °N, 75.81 °E | Updated 22 minutes ago

Haze
Haze
102 °F
Feels Like 102 °F
N
9
Wind Variable Wind from ESE

Today
High -- | Low -- °F
--% Chance of Precip.
Yesterday
High -- | Low -- °F
Precip. -- in
5:52 AM 6:56 PM
Waxing Gibbous, 64% visible
Pressure 29.71 in
Visibility 2.5 miles
Clouds
Dew Point 50 °F
Humidity 17%
Rainfall 0.00 in
Snow Depth Not available.
UV Not available.
Pollen Not available.
Air Quality Not available.
Flu Activity Not available.
METAR VIJP 271230Z 12008KT 4000 HZ NSC 39/10 Q1006 NOSIG

More Conditions Fewer Conditions

Pressure 29.71 in
Visibility 2.5 miles
Clouds
Dew Point 50 °F
Humidity 17%
Rainfall 0.00 in
Snow Depth Not available.
UV Not available.
Pollen Not available.
Air Quality Not available.
Flu Activity Not available.
METAR VIJP 271230Z 12008KT 4000 HZ NSC 39/10 Q1006 NOSIG

More Conditions Fewer Conditions

10-Day Weather Forecast

Almanac

Astronomy

Apr. 27, 2015 Rise Set
Actual Time
Civil Twilight
Nautical Twilight
Astronomical Twilight
Moon
Length of Visible Light
Length of Day
Tomorrow will be .
, % of the Moon is Illuminated

Today's Extremes

Country Highs Country Lows

Community

WunderPhotos

Upload Photos

1,817,292 photos uploaded!

WunderBlogs® & News

Nearby

Air Quality

  Air Quality AQ Index Pollutant
Not available.

Snow Depth

Station Depth Elevation

Earthquake Activity

City Distance Mag. Time & Date
Minimum magnitude displayed is 2.5.

Coastal Water Temperatures

Place Temperature

Stations

Nearby Weather Stations

Station Location Temp. Windchill Dew Point Humidity Wind Precip. Elev Updated Type